sensor_id;sensor_type;location;lat;lon;timestamp;temperature;humidity
10278;DHT22;5184;51.376;7.148;2022-09-24T00:00:58;12.50;1.00
10278;DHT22;5184;51.376;7.148;2022-09-24T00:03:25;12.40;1.00
10278;DHT22;5184;51.376;7.148;2022-09-24T00:05:53;12.50;1.00
10278;DHT22;5184;51.376;7.148;2022-09-24T00:08:20;12.50;1.00
10278;DHT22;5184;51.376;7.148;2022-09-24T00:10:47;12.50;1.00
10278;DHT22;5184;51.376;7.148;2022-09-24T00:13:16;12.50;1.00
10278;DHT22;5184;51.376;7.148;2022-09-24T00:15:45;12.50;32.60
10278;DHT22;5184;51.376;7.148;2022-09-24T00:18:10;12.50;23.50
10278;DHT22;5184;51.376;7.148;2022-09-24T00:20:37;12.50;1.00
10278;DHT22;5184;51.376;7.148;2022-09-24T00:23:03;12.50;1.00
10278;DHT22;5184;51.376;7.148;2022-09-24T00:25:29;12.50;1.00
10278;DHT22;5184;51.376;7.148;2022-09-24T00:28:02;12.50;17.90
10278;DHT22;5184;51.376;7.148;2022-09-24T00:30:28;12.50;86.30
10278;DHT22;5184;51.376;7.148;2022-09-24T00:32:55;12.50;99.90
10278;DHT22;5184;51.376;7.148;2022-09-24T00:35:21;12.40;99.90
10278;DHT22;5184;51.376;7.148;2022-09-24T00:37:49;12.40;99.90
10278;DHT22;5184;51.376;7.148;2022-09-24T00:40:16;12.40;99.90
10278;DHT22;5184;51.376;7.148;2022-09-24T00:42:42;12.40;99.90
10278;DHT22;5184;51.376;7.148;2022-09-24T00:45:09;12.40;99.90
10278;DHT22;5184;51.376;7.148;2022-09-24T00:47:38;12.40;99.90
10278;DHT22;5184;51.376;7.148;2022-09-24T00:50:06;12.40;99.90
10278;DHT22;5184;51.376;7.148;2022-09-24T00:52:32;12.30;1.00
10278;DHT22;5184;51.376;7.148;2022-09-24T00:54:58;12.30;1.00
10278;DHT22;5184;51.376;7.148;2022-09-24T00:57:24;12.40;1.00
10278;DHT22;5184;51.376;7.148;2022-09-24T00:59:51;12.40;1.00
10278;DHT22;5184;51.376;7.148;2022-09-24T01:02:17;12.40;1.00
10278;DHT22;5184;51.376;7.148;2022-09-24T01:04:44;12.40;85.30
10278;DHT22;5184;51.376;7.148;2022-09-24T01:07:11;12.30;99.90
10278;DHT22;5184;51.376;7.148;2022-09-24T01:09:38;12.30;99.90
10278;DHT22;5184;51.376;7.148;2022-09-24T01:12:17;12.20;99.90
10278;DHT22;5184;51.376;7.148;2022-09-24T01:17:30;12.20;99.90
10278;DHT22;5184;51.376;7.148;2022-09-24T01:20:02;12.20;99.90
10278;DHT22;5184;51.376;7.148;2022-09-24T01:22:37;12.10;99.90
10278;DHT22;5184;51.376;7.148;2022-09-24T01:25:00;12.10;99.90
10278;DHT22;5184;51.376;7.148;2022-09-24T01:30:04;12.20;99.90
10278;DHT22;5184;51.376;7.148;2022-09-24T01:35:14;12.20;1.00
10278;DHT22;5184;51.376;7.148;2022-09-24T01:37:42;12.20;1.00
10278;DHT22;5184;51.376;7.148;2022-09-24T01:40:08;12.20;1.00
10278;DHT22;5184;51.376;7.148;2022-09-24T01:42:36;12.20;1.00
10278;DHT22;5184;51.376;7.148;2022-09-24T01:45:03;12.20;99.90
10278;DHT22;5184;51.376;7.148;2022-09-24T01:47:31;12.20;94.60
10278;DHT22;5184;51.376;7.148;2022-09-24T01:49:57;12.20;99.90
10278;DHT22;5184;51.376;7.148;2022-09-24T01:52:26;12.30;99.90
10278;DHT22;5184;51.376;7.148;2022-09-24T01:54:51;12.30;99.90
10278;DHT22;5184;51.376;7.148;2022-09-24T01:57:20;12.30;99.90
10278;DHT22;5184;51.376;7.148;2022-09-24T02:00:02;12.30;22.10
10278;DHT22;5184;51.376;7.148;2022-09-24T02:02:33;12.20;99.90
10278;DHT22;5184;51.376;7.148;2022-09-24T02:05:19;12.20;99.90
10278;DHT22;5184;51.376;7.148;2022-09-24T02:08:01;12.20;99.90
10278;DHT22;5184;51.376;7.148;2022-09-24T02:10:26;12.20;99.90
10278;DHT22;5184;51.376;7.148;2022-09-24T02:12:54;12.20;99.90
10278;DHT22;5184;51.376;7.148;2022-09-24T02:15:20;12.20;1.00
10278;DHT22;5184;51.376;7.148;2022-09-24T02:17:46;12.20;99.90
10278;DHT22;5184;51.376;7.148;2022-09-24T02:20:13;12.20;1.00
10278;DHT22;5184;51.376;7.148;2022-09-24T02:22:40;12.20;32.70
10278;DHT22;5184;51.376;7.148;2022-09-24T02:25:08;12.20;73.90
10278;DHT22;5184;51.376;7.148;2022-09-24T02:27:34;12.30;61.60
10278;DHT22;5184;51.376;7.148;2022-09-24T02:30:02;12.30;54.10
10278;DHT22;5184;51.376;7.148;2022-09-24T02:32:30;12.20;1.00
10278;DHT22;5184;51.376;7.148;2022-09-24T02:34:58;12.20;1.00
10278;DHT22;5184;51.376;7.148;2022-09-24T02:37:25;12.20;1.00
10278;DHT22;5184;51.376;7.148;2022-09-24T02:39:52;12.20;1.00
10278;DHT22;5184;51.376;7.148;2022-09-24T02:42:20;12.20;9.70
10278;DHT22;5184;51.376;7.148;2022-09-24T02:44:46;12.20;3.90
10278;DHT22;5184;51.376;7.148;2022-09-24T02:47:13;12.20;99.90
10278;DHT22;5184;51.376;7.148;2022-09-24T02:49:39;12.20;99.90
10278;DHT22;5184;51.376;7.148;2022-09-24T02:52:06;12.20;31.00
10278;DHT22;5184;51.376;7.148;2022-09-24T02:54:33;12.10;1.00
10278;DHT22;5184;51.376;7.148;2022-09-24T02:57:01;12.10;99.90
10278;DHT22;5184;51.376;7.148;2022-09-24T02:59:27;12.10;99.90
10278;DHT22;5184;51.376;7.148;2022-09-24T03:01:54;12.10;49.40
10278;DHT22;5184;51.376;7.148;2022-09-24T03:04:21;12.10;99.90
10278;DHT22;5184;51.376;7.148;2022-09-24T03:06:47;12.10;1.00
10278;DHT22;5184;51.376;7.148;2022-09-24T03:09:14;12.20;1.00
10278;DHT22;5184;51.376;7.148;2022-09-24T03:11:41;12.10;1.00
10278;DHT22;5184;51.376;7.148;2022-09-24T03:14:08;12.20;1.00
10278;DHT22;5184;51.376;7.148;2022-09-24T03:16:35;12.20;1.00
10278;DHT22;5184;51.376;7.148;2022-09-24T03:19:02;12.20;99.90
10278;DHT22;5184;51.376;7.148;2022-09-24T03:21:28;12.20;1.00
10278;DHT22;5184;51.376;7.148;2022-09-24T03:23:55;12.20;1.00
10278;DHT22;5184;51.376;7.148;2022-09-24T03:26:21;12.20;1.00
10278;DHT22;5184;51.376;7.148;2022-09-24T03:28:49;12.20;1.00
10278;DHT22;5184;51.376;7.148;2022-09-24T03:31:16;12.20;1.00
10278;DHT22;5184;51.376;7.148;2022-09-24T03:33:44;12.20;1.00
10278;DHT22;5184;51.376;7.148;2022-09-24T03:36:12;12.20;1.00
10278;DHT22;5184;51.376;7.148;2022-09-24T03:38:39;12.20;1.00
10278;DHT22;5184;51.376;7.148;2022-09-24T03:41:06;12.10;1.00
10278;DHT22;5184;51.376;7.148;2022-09-24T03:43:31;12.20;99.90
10278;DHT22;5184;51.376;7.148;2022-09-24T03:45:58;12.20;99.90
10278;DHT22;5184;51.376;7.148;2022-09-24T03:48:25;12.20;1.00
10278;DHT22;5184;51.376;7.148;2022-09-24T03:50:52;12.20;99.90
10278;DHT22;5184;51.376;7.148;2022-09-24T03:53:19;12.10;99.90
10278;DHT22;5184;51.376;7.148;2022-09-24T03:55:51;12.10;99.90
10278;DHT22;5184;51.376;7.148;2022-09-24T03:58:14;12.10;99.90
10278;DHT22;5184;51.376;7.148;2022-09-24T04:00:41;12.10;1.00
10278;DHT22;5184;51.376;7.148;2022-09-24T04:03:07;12.10;1.00
10278;DHT22;5184;51.376;7.148;2022-09-24T04:05:34;12.10;1.00
10278;DHT22;5184;51.376;7.148;2022-09-24T04:08:01;12.00;1.00
10278;DHT22;5184;51.376;7.148;2022-09-24T04:10:27;12.00;99.90
10278;DHT22;5184;51.376;7.148;2022-09-24T04:12:54;12.00;1.00
10278;DHT22;5184;51.376;7.148;2022-09-24T04:15:22;12.00;24.10
10278;DHT22;5184;51.376;7.148;2022-09-24T04:17:51;11.90;1.00
10278;DHT22;5184;51.376;7.148;2022-09-24T04:20:17;11.90;1.00
10278;DHT22;5184;51.376;7.148;2022-09-24T04:22:43;11.90;99.90
10278;DHT22;5184;51.376;7.148;2022-09-24T04:25:10;11.90;99.90
10278;DHT22;5184;51.376;7.148;2022-09-24T04:27:36;11.80;99.90
10278;DHT22;5184;51.376;7.148;2022-09-24T04:30:04;11.80;16.40
10278;DHT22;5184;51.376;7.148;2022-09-24T04:32:30;11.80;15.80
10278;DHT22;5184;51.376;7.148;2022-09-24T04:34:57;11.80;99.90
10278;DHT22;5184;51.376;7.148;2022-09-24T04:37:24;11.80;99.90
10278;DHT22;5184;51.376;7.148;2022-09-24T04:39:50;11.80;64.10
10278;DHT22;5184;51.376;7.148;2022-09-24T04:42:18;11.70;1.00
10278;DHT22;5184;51.376;7.148;2022-09-24T04:44:45;11.60;99.90
10278;DHT22;5184;51.376;7.148;2022-09-24T04:47:13;11.70;99.90
10278;DHT22;5184;51.376;7.148;2022-09-24T04:49:40;11.70;73.90
10278;DHT22;5184;51.376;7.148;2022-09-24T04:52:06;11.70;72.50
10278;DHT22;5184;51.376;7.148;2022-09-24T04:54:33;11.70;54.10
10278;DHT22;5184;51.376;7.148;2022-09-24T04:56:59;11.70;1.00
10278;DHT22;5184;51.376;7.148;2022-09-24T04:59:26;11.70;1.00
10278;DHT22;5184;51.376;7.148;2022-09-24T05:01:53;11.70;1.00
10278;DHT22;5184;51.376;7.148;2022-09-24T05:04:20;11.70;1.00
10278;DHT22;5184;51.376;7.148;2022-09-24T05:06:47;11.60;1.00
10278;DHT22;5184;51.376;7.148;2022-09-24T05:09:13;12.10;1.00
10278;DHT22;5184;51.376;7.148;2022-09-24T05:11:40;11.70;89.40
10278;DHT22;5184;51.376;7.148;2022-09-24T05:14:07;11.60;1.00
10278;DHT22;5184;51.376;7.148;2022-09-24T05:16:34;11.60;1.00
10278;DHT22;5184;51.376;7.148;2022-09-24T05:19:02;11.60;1.00
10278;DHT22;5184;51.376;7.148;2022-09-24T05:21:29;11.60;1.00
10278;DHT22;5184;51.376;7.148;2022-09-24T05:23:55;11.60;99.90
10278;DHT22;5184;51.376;7.148;2022-09-24T05:26:22;11.60;1.00
10278;DHT22;5184;51.376;7.148;2022-09-24T05:28:55;11.60;93.00
10278;DHT22;5184;51.376;7.148;2022-09-24T05:31:21;11.60;92.40
10278;DHT22;5184;51.376;7.148;2022-09-24T05:33:48;11.70;61.50
10278;DHT22;5184;51.376;7.148;2022-09-24T05:36:15;10.40;87.50
10278;DHT22;5184;51.376;7.148;2022-09-24T05:38:42;11.50;99.90
10278;DHT22;5184;51.376;7.148;2022-09-24T05:41:09;11.50;99.90
10278;DHT22;5184;51.376;7.148;2022-09-24T05:43:37;11.60;1.00
10278;DHT22;5184;51.376;7.148;2022-09-24T05:46:03;11.60;1.00
10278;DHT22;5184;51.376;7.148;2022-09-24T05:48:31;11.60;1.00
10278;DHT22;5184;51.376;7.148;2022-09-24T05:51:01;11.60;1.00
10278;DHT22;5184;51.376;7.148;2022-09-24T05:53:27;11.60;1.00
10278;DHT22;5184;51.376;7.148;2022-09-24T05:55:55;11.70;1.00
10278;DHT22;5184;51.376;7.148;2022-09-24T05:58:22;11.80;1.00
10278;DHT22;5184;51.376;7.148;2022-09-24T06:00:50;11.80;1.00
10278;DHT22;5184;51.376;7.148;2022-09-24T06:03:18;11.80;1.00
10278;DHT22;5184;51.376;7.148;2022-09-24T06:05:45;11.80;1.00
10278;DHT22;5184;51.376;7.148;2022-09-24T06:08:11;11.80;99.90
10278;DHT22;5184;51.376;7.148;2022-09-24T06:10:37;11.90;1.00
10278;DHT22;5184;51.376;7.148;2022-09-24T06:13:05;11.90;1.00
10278;DHT22;5184;51.376;7.148;2022-09-24T06:15:32;12.00;1.00
10278;DHT22;5184;51.376;7.148;2022-09-24T06:17:59;12.00;1.00
10278;DHT22;5184;51.376;7.148;2022-09-24T06:20:27;12.00;1.00
10278;DHT22;5184;51.376;7.148;2022-09-24T06:22:54;12.00;1.00
10278;DHT22;5184;51.376;7.148;2022-09-24T06:25:20;12.10;1.00
10278;DHT22;5184;51.376;7.148;2022-09-24T06:27:52;12.10;1.00
10278;DHT22;5184;51.376;7.148;2022-09-24T06:30:13;12.10;99.90
10278;DHT22;5184;51.376;7.148;2022-09-24T06:32:40;12.10;99.90
10278;DHT22;5184;51.376;7.148;2022-09-24T06:35:07;12.10;1.00
10278;DHT22;5184;51.376;7.148;2022-09-24T06:37:34;12.10;1.00
10278;DHT22;5184;51.376;7.148;2022-09-24T06:40:01;12.10;1.00
10278;DHT22;5184;51.376;7.148;2022-09-24T06:42:27;12.10;1.00
10278;DHT22;5184;51.376;7.148;2022-09-24T06:44:54;12.10;1.00
10278;DHT22;5184;51.376;7.148;2022-09-24T06:47:21;12.20;1.00
10278;DHT22;5184;51.376;7.148;2022-09-24T06:49:49;12.20;1.00
10278;DHT22;5184;51.376;7.148;2022-09-24T06:52:15;12.20;1.00
10278;DHT22;5184;51.376;7.148;2022-09-24T06:54:42;12.20;1.00
10278;DHT22;5184;51.376;7.148;2022-09-24T06:57:08;12.30;1.00
10278;DHT22;5184;51.376;7.148;2022-09-24T06:59:36;12.90;1.00
10278;DHT22;5184;51.376;7.148;2022-09-24T07:02:03;12.50;1.00
10278;DHT22;5184;51.376;7.148;2022-09-24T07:04:30;12.50;1.00
10278;DHT22;5184;51.376;7.148;2022-09-24T07:06:57;12.50;1.00
10278;DHT22;5184;51.376;7.148;2022-09-24T07:09:29;12.50;1.00
10278;DHT22;5184;51.376;7.148;2022-09-24T07:11:58;12.60;99.90
10278;DHT22;5184;51.376;7.148;2022-09-24T07:14:25;12.70;99.90
10278;DHT22;5184;51.376;7.148;2022-09-24T07:16:52;12.60;99.90
10278;DHT22;5184;51.376;7.148;2022-09-24T07:19:18;12.70;99.90
10278;DHT22;5184;51.376;7.148;2022-09-24T07:21:45;12.90;1.00
10278;DHT22;5184;51.376;7.148;2022-09-24T07:24:12;13.10;99.90
10278;DHT22;5184;51.376;7.148;2022-09-24T07:26:39;13.10;99.90
10278;DHT22;5184;51.376;7.148;2022-09-24T07:29:05;13.30;99.90
10278;DHT22;5184;51.376;7.148;2022-09-24T07:31:32;13.30;1.00
10278;DHT22;5184;51.376;7.148;2022-09-24T07:33:59;13.50;99.90
10278;DHT22;5184;51.376;7.148;2022-09-24T07:36:27;13.70;4.70
10278;DHT22;5184;51.376;7.148;2022-09-24T07:38:53;13.70;1.00
10278;DHT22;5184;51.376;7.148;2022-09-24T07:41:20;13.80;1.00
10278;DHT22;5184;51.376;7.148;2022-09-24T07:43:46;13.90;99.90
10278;DHT22;5184;51.376;7.148;2022-09-24T07:46:14;14.10;99.90
10278;DHT22;5184;51.376;7.148;2022-09-24T07:48:41;14.10;99.90
10278;DHT22;5184;51.376;7.148;2022-09-24T07:51:09;14.10;99.90
10278;DHT22;5184;51.376;7.148;2022-09-24T07:53:36;14.20;99.90
10278;DHT22;5184;51.376;7.148;2022-09-24T07:56:03;14.20;99.90
10278;DHT22;5184;51.376;7.148;2022-09-24T07:58:30;14.20;99.90
10278;DHT22;5184;51.376;7.148;2022-09-24T08:00:57;14.40;99.90
10278;DHT22;5184;51.376;7.148;2022-09-24T08:03:25;14.50;99.90
10278;DHT22;5184;51.376;7.148;2022-09-24T08:05:51;14.50;99.90
10278;DHT22;5184;51.376;7.148;2022-09-24T08:08:18;14.60;6.00
10278;DHT22;5184;51.376;7.148;2022-09-24T08:10:44;14.70;99.90
10278;DHT22;5184;51.376;7.148;2022-09-24T08:13:12;14.70;94.50
10278;DHT22;5184;51.376;7.148;2022-09-24T08:15:39;14.70;99.90
10278;DHT22;5184;51.376;7.148;2022-09-24T08:18:06;14.70;99.90
10278;DHT22;5184;51.376;7.148;2022-09-24T08:20:32;14.70;99.90
10278;DHT22;5184;51.376;7.148;2022-09-24T08:23:00;14.70;99.90
10278;DHT22;5184;51.376;7.148;2022-09-24T08:25:26;14.80;99.90
10278;DHT22;5184;51.376;7.148;2022-09-24T08:27:53;14.70;99.90
10278;DHT22;5184;51.376;7.148;2022-09-24T08:30:20;14.70;48.20
10278;DHT22;5184;51.376;7.148;2022-09-24T08:32:47;14.90;99.90
10278;DHT22;5184;51.376;7.148;2022-09-24T08:35:14;14.90;99.90
10278;DHT22;5184;51.376;7.148;2022-09-24T08:37:41;14.90;99.90
10278;DHT22;5184;51.376;7.148;2022-09-24T08:40:13;15.00;1.00
10278;DHT22;5184;51.376;7.148;2022-09-24T08:45:17;15.10;1.00
10278;DHT22;5184;51.376;7.148;2022-09-24T08:47:52;15.10;99.90
10278;DHT22;5184;51.376;7.148;2022-09-24T08:50:20;15.20;99.90
10278;DHT22;5184;51.376;7.148;2022-09-24T08:55:38;15.30;99.90
10278;DHT22;5184;51.376;7.148;2022-09-24T08:58:57;15.20;99.90
10278;DHT22;5184;51.376;7.148;2022-09-24T09:09:43;15.40;99.90
10278;DHT22;5184;51.376;7.148;2022-09-24T09:12:11;15.50;88.10
10278;DHT22;5184;51.376;7.148;2022-09-24T09:14:38;15.60;99.90
10278;DHT22;5184;51.376;7.148;2022-09-24T09:17:05;15.70;20.50
10278;DHT22;5184;51.376;7.148;2022-09-24T09:19:33;15.70;1.00
10278;DHT22;5184;51.376;7.148;2022-09-24T09:22:02;15.70;1.00
10278;DHT22;5184;51.376;7.148;2022-09-24T09:24:33;15.80;1.00
10278;DHT22;5184;51.376;7.148;2022-09-24T09:26:54;15.80;99.90
10278;DHT22;5184;51.376;7.148;2022-09-24T09:29:21;15.90;1.00
10278;DHT22;5184;51.376;7.148;2022-09-24T09:32:04;16.00;99.90
10278;DHT22;5184;51.376;7.148;2022-09-24T09:39:54;16.20;99.90
10278;DHT22;5184;51.376;7.148;2022-09-24T09:42:27;16.30;99.90
10278;DHT22;5184;51.376;7.148;2022-09-24T09:44:53;16.20;1.00
10278;DHT22;5184;51.376;7.148;2022-09-24T09:47:47;16.20;1.00
10278;DHT22;5184;51.376;7.148;2022-09-24T09:50:17;16.20;1.00
10278;DHT22;5184;51.376;7.148;2022-09-24T09:52:40;16.20;1.00
10278;DHT22;5184;51.376;7.148;2022-09-24T09:55:07;16.30;1.00
10278;DHT22;5184;51.376;7.148;2022-09-24T09:57:34;16.30;1.00
10278;DHT22;5184;51.376;7.148;2022-09-24T10:00:02;16.40;99.90
10278;DHT22;5184;51.376;7.148;2022-09-24T10:02:30;16.40;99.90
10278;DHT22;5184;51.376;7.148;2022-09-24T10:04:57;16.40;51.20
10278;DHT22;5184;51.376;7.148;2022-09-24T10:07:23;16.40;66.90
10278;DHT22;5184;51.376;7.148;2022-09-24T10:09:58;16.40;99.90
10278;DHT22;5184;51.376;7.148;2022-09-24T10:12:23;16.60;99.90
10278;DHT22;5184;51.376;7.148;2022-09-24T10:14:56;16.70;99.90
10278;DHT22;5184;51.376;7.148;2022-09-24T10:17:24;16.70;99.90
10278;DHT22;5184;51.376;7.148;2022-09-24T10:19:51;16.90;56.10
10278;DHT22;5184;51.376;7.148;2022-09-24T10:22:21;16.90;99.90
10278;DHT22;5184;51.376;7.148;2022-09-24T10:24:47;16.90;13.90
10278;DHT22;5184;51.376;7.148;2022-09-24T10:27:28;16.70;91.10
10278;DHT22;5184;51.376;7.148;2022-09-24T10:29:53;16.70;79.40
10278;DHT22;5184;51.376;7.148;2022-09-24T10:32:25;16.70;99.90
10278;DHT22;5184;51.376;7.148;2022-09-24T10:35:03;16.60;1.00
10278;DHT22;5184;51.376;7.148;2022-09-24T10:37:28;16.60;99.90
10278;DHT22;5184;51.376;7.148;2022-09-24T10:39:57;16.70;50.10
10278;DHT22;5184;51.376;7.148;2022-09-24T10:42:24;16.70;34.90
10278;DHT22;5184;51.376;7.148;2022-09-24T10:44:50;16.70;1.00
10278;DHT22;5184;51.376;7.148;2022-09-24T10:47:59;16.50;1.00
10278;DHT22;5184;51.376;7.148;2022-09-24T10:50:13;16.60;1.00
10278;DHT22;5184;51.376;7.148;2022-09-24T10:52:50;16.70;1.00
10278;DHT22;5184;51.376;7.148;2022-09-24T10:55:20;16.60;1.00
10278;DHT22;5184;51.376;7.148;2022-09-24T11:03:17;17.00;99.20
10278;DHT22;5184;51.376;7.148;2022-09-24T11:05:44;17.20;1.00
10278;DHT22;5184;51.376;7.148;2022-09-24T11:08:29;17.30;1.00
10278;DHT22;5184;51.376;7.148;2022-09-24T11:10:56;17.60;99.90
10278;DHT22;5184;51.376;7.148;2022-09-24T11:13:31;17.70;99.90
10278;DHT22;5184;51.376;7.148;2022-09-24T11:16:14;17.70;99.90
10278;DHT22;5184;51.376;7.148;2022-09-24T11:18:59;17.60;1.00
10278;DHT22;5184;51.376;7.148;2022-09-24T11:26:53;17.90;99.90
10278;DHT22;5184;51.376;7.148;2022-09-24T11:29:32;17.60;79.90
10278;DHT22;5184;51.376;7.148;2022-09-24T11:32:03;17.30;99.90
10278;DHT22;5184;51.376;7.148;2022-09-24T11:34:37;17.20;1.00
10278;DHT22;5184;51.376;7.148;2022-09-24T11:37:14;17.20;1.00
10278;DHT22;5184;51.376;7.148;2022-09-24T11:39:42;17.10;1.00
10278;DHT22;5184;51.376;7.148;2022-09-24T11:44:50;17.10;1.00
10278;DHT22;5184;51.376;7.148;2022-09-24T11:50:17;17.20;1.00
10278;DHT22;5184;51.376;7.148;2022-09-24T11:52:44;17.20;1.00
10278;DHT22;5184;51.376;7.148;2022-09-24T11:55:16;17.10;1.00
10278;DHT22;5184;51.376;7.148;2022-09-24T11:57:48;17.10;1.00
10278;DHT22;5184;51.376;7.148;2022-09-24T12:00:13;17.10;1.00
10278;DHT22;5184;51.376;7.148;2022-09-24T12:02:44;17.00;1.00
10278;DHT22;5184;51.376;7.148;2022-09-24T12:05:18;17.10;1.00
10278;DHT22;5184;51.376;7.148;2022-09-24T12:07:59;17.20;1.00
10278;DHT22;5184;51.376;7.148;2022-09-24T12:10:34;17.00;1.00
10278;DHT22;5184;51.376;7.148;2022-09-24T12:13:51;17.10;1.00
10278;DHT22;5184;51.376;7.148;2022-09-24T12:16:02;17.30;1.00
10278;DHT22;5184;51.376;7.148;2022-09-24T12:18:29;17.40;1.00
10278;DHT22;5184;51.376;7.148;2022-09-24T12:21:10;17.30;1.00
10278;DHT22;5184;51.376;7.148;2022-09-24T12:23:38;17.40;1.00
10278;DHT22;5184;51.376;7.148;2022-09-24T12:26:04;17.50;1.00
10278;DHT22;5184;51.376;7.148;2022-09-24T12:28:41;17.50;1.00
10278;DHT22;5184;51.376;7.148;2022-09-24T12:31:18;17.50;1.00
10278;DHT22;5184;51.376;7.148;2022-09-24T12:33:53;17.60;1.00
10278;DHT22;5184;51.376;7.148;2022-09-24T12:36:23;17.70;1.00
10278;DHT22;5184;51.376;7.148;2022-09-24T12:39:06;17.70;1.00
10278;DHT22;5184;51.376;7.148;2022-09-24T12:41:48;17.70;1.00
10278;DHT22;5184;51.376;7.148;2022-09-24T12:44:16;17.60;1.00
10278;DHT22;5184;51.376;7.148;2022-09-24T12:46:47;17.60;1.00
10278;DHT22;5184;51.376;7.148;2022-09-24T12:52:15;17.40;1.00
10278;DHT22;5184;51.376;7.148;2022-09-24T12:54:41;17.40;1.00
10278;DHT22;5184;51.376;7.148;2022-09-24T12:57:15;17.30;2.10
10278;DHT22;5184;51.376;7.148;2022-09-24T12:59:48;17.20;99.90
10278;DHT22;5184;51.376;7.148;2022-09-24T13:02:17;17.20;99.90
10278;DHT22;5184;51.376;7.148;2022-09-24T13:04:43;17.20;99.90
10278;DHT22;5184;51.376;7.148;2022-09-24T13:09:50;17.10;99.90
10278;DHT22;5184;51.376;7.148;2022-09-24T13:12:21;17.10;99.90
10278;DHT22;5184;51.376;7.148;2022-09-24T13:14:49;17.10;99.90
10278;DHT22;5184;51.376;7.148;2022-09-24T13:17:14;17.00;99.90
10278;DHT22;5184;51.376;7.148;2022-09-24T13:19:41;17.00;99.90
10278;DHT22;5184;51.376;7.148;2022-09-24T13:22:25;17.00;99.90
10278;DHT22;5184;51.376;7.148;2022-09-24T13:24:53;17.00;99.90
10278;DHT22;5184;51.376;7.148;2022-09-24T13:27:21;17.00;99.90
10278;DHT22;5184;51.376;7.148;2022-09-24T13:29:47;17.10;99.90
10278;DHT22;5184;51.376;7.148;2022-09-24T13:32:14;17.00;99.90
10278;DHT22;5184;51.376;7.148;2022-09-24T13:34:42;16.90;99.90
10278;DHT22;5184;51.376;7.148;2022-09-24T13:37:13;16.90;99.90
10278;DHT22;5184;51.376;7.148;2022-09-24T13:39:44;16.90;99.90
10278;DHT22;5184;51.376;7.148;2022-09-24T13:42:17;16.80;99.90
10278;DHT22;5184;51.376;7.148;2022-09-24T13:44:48;16.80;99.90
10278;DHT22;5184;51.376;7.148;2022-09-24T13:47:30;16.80;99.90
10278;DHT22;5184;51.376;7.148;2022-09-24T13:50:01;16.90;99.90
10278;DHT22;5184;51.376;7.148;2022-09-24T13:52:27;16.90;99.90
10278;DHT22;5184;51.376;7.148;2022-09-24T13:54:52;17.20;28.40
10278;DHT22;5184;51.376;7.148;2022-09-24T13:57:23;17.20;1.00
10278;DHT22;5184;51.376;7.148;2022-09-24T13:59:48;17.20;1.00
10278;DHT22;5184;51.376;7.148;2022-09-24T14:02:21;17.20;99.90
10278;DHT22;5184;51.376;7.148;2022-09-24T14:04:51;17.20;99.90
10278;DHT22;5184;51.376;7.148;2022-09-24T14:07:14;17.20;99.90
10278;DHT22;5184;51.376;7.148;2022-09-24T14:09:40;17.30;99.90
10278;DHT22;5184;51.376;7.148;2022-09-24T14:12:12;17.30;99.90
10278;DHT22;5184;51.376;7.148;2022-09-24T14:14:41;17.30;99.90
10278;DHT22;5184;51.376;7.148;2022-09-24T14:17:06;17.30;99.90
10278;DHT22;5184;51.376;7.148;2022-09-24T14:19:33;17.30;99.90
10278;DHT22;5184;51.376;7.148;2022-09-24T14:21:59;17.30;99.90
10278;DHT22;5184;51.376;7.148;2022-09-24T14:24:30;17.20;99.90
10278;DHT22;5184;51.376;7.148;2022-09-24T14:26:57;17.30;99.90
10278;DHT22;5184;51.376;7.148;2022-09-24T14:29:26;17.20;99.90
10278;DHT22;5184;51.376;7.148;2022-09-24T14:32:01;17.00;99.90
10278;DHT22;5184;51.376;7.148;2022-09-24T14:34:32;15.40;99.90
10278;DHT22;5184;51.376;7.148;2022-09-24T14:36:57;17.00;99.90
10278;DHT22;5184;51.376;7.148;2022-09-24T14:39:24;16.80;1.00
10278;DHT22;5184;51.376;7.148;2022-09-24T14:41:50;16.80;99.90
10278;DHT22;5184;51.376;7.148;2022-09-24T14:44:20;16.90;1.00
10278;DHT22;5184;51.376;7.148;2022-09-24T14:46:47;16.90;1.00
10278;DHT22;5184;51.376;7.148;2022-09-24T14:49:19;16.80;1.00
10278;DHT22;5184;51.376;7.148;2022-09-24T14:51:54;16.80;99.90
10278;DHT22;5184;51.376;7.148;2022-09-24T14:54:22;16.80;99.90
10278;DHT22;5184;51.376;7.148;2022-09-24T14:56:45;16.70;99.90
10278;DHT22;5184;51.376;7.148;2022-09-24T14:59:14;16.60;1.00
10278;DHT22;5184;51.376;7.148;2022-09-24T15:01:39;16.70;1.00
10278;DHT22;5184;51.376;7.148;2022-09-24T15:04:06;16.70;1.00
10278;DHT22;5184;51.376;7.148;2022-09-24T15:06:34;16.50;1.00
10278;DHT22;5184;51.376;7.148;2022-09-24T15:09:03;16.50;1.00
10278;DHT22;5184;51.376;7.148;2022-09-24T15:11:30;16.50;1.00
10278;DHT22;5184;51.376;7.148;2022-09-24T15:14:02;16.50;1.00
10278;DHT22;5184;51.376;7.148;2022-09-24T15:16:29;16.50;1.00
10278;DHT22;5184;51.376;7.148;2022-09-24T15:19:08;16.50;1.00
10278;DHT22;5184;51.376;7.148;2022-09-24T15:21:25;16.50;1.00
10278;DHT22;5184;51.376;7.148;2022-09-24T15:23:54;16.40;1.00
10278;DHT22;5184;51.376;7.148;2022-09-24T15:26:27;16.40;1.00
10278;DHT22;5184;51.376;7.148;2022-09-24T15:28:47;16.30;1.00
10278;DHT22;5184;51.376;7.148;2022-09-24T15:31:13;16.30;1.00
10278;DHT22;5184;51.376;7.148;2022-09-24T15:33:40;16.20;1.00
10278;DHT22;5184;51.376;7.148;2022-09-24T15:36:08;16.20;1.00
10278;DHT22;5184;51.376;7.148;2022-09-24T15:38:35;16.10;44.00
10278;DHT22;5184;51.376;7.148;2022-09-24T15:41:02;16.20;86.90
10278;DHT22;5184;51.376;7.148;2022-09-24T15:43:29;16.10;76.90
10278;DHT22;5184;51.376;7.148;2022-09-24T15:45:55;16.10;99.90
10278;DHT22;5184;51.376;7.148;2022-09-24T15:48:22;16.20;99.90
10278;DHT22;5184;51.376;7.148;2022-09-24T15:50:49;16.10;99.90
10278;DHT22;5184;51.376;7.148;2022-09-24T15:53:19;16.10;99.90
10278;DHT22;5184;51.376;7.148;2022-09-24T15:55:44;16.10;99.90
10278;DHT22;5184;51.376;7.148;2022-09-24T15:58:10;16.10;99.90
10278;DHT22;5184;51.376;7.148;2022-09-24T16:00:37;16.00;99.90
10278;DHT22;5184;51.376;7.148;2022-09-24T16:03:04;16.00;99.90
10278;DHT22;5184;51.376;7.148;2022-09-24T16:05:31;16.00;99.90
10278;DHT22;5184;51.376;7.148;2022-09-24T16:07:57;15.90;99.90
10278;DHT22;5184;51.376;7.148;2022-09-24T16:10:24;15.80;99.90
10278;DHT22;5184;51.376;7.148;2022-09-24T16:12:51;15.80;99.90
10278;DHT22;5184;51.376;7.148;2022-09-24T16:15:18;15.80;99.90
10278;DHT22;5184;51.376;7.148;2022-09-24T16:17:45;15.80;99.90
10278;DHT22;5184;51.376;7.148;2022-09-24T16:20:11;15.70;99.90
10278;DHT22;5184;51.376;7.148;2022-09-24T16:22:38;15.70;99.90
10278;DHT22;5184;51.376;7.148;2022-09-24T16:25:06;15.70;99.90
10278;DHT22;5184;51.376;7.148;2022-09-24T16:27:33;15.70;99.90
10278;DHT22;5184;51.376;7.148;2022-09-24T16:30:00;15.60;99.90
10278;DHT22;5184;51.376;7.148;2022-09-24T16:32:26;15.60;1.00
10278;DHT22;5184;51.376;7.148;2022-09-24T16:34:53;15.60;1.00
10278;DHT22;5184;51.376;7.148;2022-09-24T16:37:20;15.50;1.00
10278;DHT22;5184;51.376;7.148;2022-09-24T16:39:47;15.50;1.00
10278;DHT22;5184;51.376;7.148;2022-09-24T16:42:14;15.50;1.00
10278;DHT22;5184;51.376;7.148;2022-09-24T16:44:41;15.50;57.90
10278;DHT22;5184;51.376;7.148;2022-09-24T16:47:08;15.40;48.10
10278;DHT22;5184;51.376;7.148;2022-09-24T16:49:35;15.40;1.00